createdAt,value
2018-11-21T00:00:25.363Z,101746.97
2018-11-21T00:01:27.108Z,101743.45
2018-11-21T00:02:28.845Z,101749.57
2018-11-21T00:03:30.654Z,101745.50
2018-11-21T00:04:35.624Z,101731.19
2018-11-21T00:05:37.420Z,101748.09
2018-11-21T00:06:40.009Z,101741.97
2018-11-21T00:07:41.754Z,101745.13
2018-11-21T00:08:43.566Z,101742.14
2018-11-21T00:09:45.275Z,101740.30
2018-11-21T00:10:47.027Z,101745.13
2018-11-21T00:11:48.775Z,101743.64
2018-11-21T00:12:50.515Z,101749.77
2018-11-21T00:13:52.260Z,101744.57
2018-11-21T00:14:55.123Z,101744.95
2018-11-21T00:15:56.858Z,101742.34
2018-11-21T00:16:58.615Z,101741.05
2018-11-21T00:18:00.374Z,101731.39
2018-11-21T00:19:02.117Z,101743.09
2018-11-21T00:20:03.891Z,101734.91
2018-11-21T00:21:05.643Z,101748.30
2018-11-21T00:22:07.377Z,101737.89
2018-11-21T00:23:12.858Z,101740.12
2018-11-21T00:24:14.605Z,101740.87
2018-11-21T00:25:18.113Z,101751.82
2018-11-21T00:26:19.864Z,101727.11
2018-11-21T00:27:21.613Z,101742.72
2018-11-21T00:28:23.659Z,101745.32
2018-11-21T00:29:25.416Z,101743.09
2018-11-21T00:30:27.201Z,101744.39
2018-11-21T00:31:28.967Z,101749.97
2018-11-21T00:32:32.225Z,101766.88
2018-11-21T00:33:33.991Z,101752.57
2018-11-21T00:34:35.809Z,101753.88
2018-11-21T00:35:37.588Z,101752.40
2018-11-21T00:36:39.339Z,101745.52
2018-11-21T00:37:41.086Z,101749.97
2018-11-21T00:38:42.842Z,101752.40
2018-11-21T00:39:44.580Z,101750.72
2018-11-21T00:40:48.175Z,101744.97
2018-11-21T00:41:49.906Z,101739.77
2018-11-21T00:42:51.644Z,101753.32
2018-11-21T00:43:53.431Z,101766.33
2018-11-21T00:44:55.187Z,101759.65
2018-11-21T00:46:02.648Z,101747.57
2018-11-21T00:47:04.391Z,101755.00
2018-11-21T00:48:07.271Z,101750.17
2018-11-21T00:49:09.017Z,101758.16
2018-11-21T00:50:11.268Z,101752.77
2018-11-21T00:51:12.586Z,101766.33
2018-11-21T00:52:14.359Z,101759.65
2018-11-21T00:53:16.244Z,101760.95
2018-11-21T00:54:18.000Z,101759.65
2018-11-21T00:55:20.632Z,101764.10
2018-11-21T00:56:22.410Z,101767.62
2018-11-21T00:57:24.321Z,101761.50
2018-11-21T00:58:26.062Z,101756.67
2018-11-21T00:59:27.800Z,101755.92
2018-11-21T01:00:29.555Z,101758.90
2018-11-21T01:01:41.885Z,101751.47
2018-11-21T01:02:43.640Z,101760.20
2018-11-21T01:03:47.192Z,101760.58
2018-11-21T01:04:48.932Z,101762.25
2018-11-21T01:05:50.886Z,101747.36
2018-11-21T01:06:52.661Z,101765.19
2018-11-21T01:07:56.347Z,101764.27
2018-11-21T01:08:58.084Z,101753.86
2018-11-21T01:09:59.827Z,101757.39
2018-11-21T01:11:01.915Z,101756.46
2018-11-21T01:12:03.775Z,101756.09
2018-11-21T01:13:05.573Z,101750.55
2018-11-21T01:14:07.329Z,101760.36
2018-11-21T01:15:09.112Z,101754.23
2018-11-21T01:16:11.286Z,101757.77
2018-11-21T01:17:13.073Z,101761.11
2018-11-21T01:18:14.831Z,101770.39
2018-11-21T01:19:16.782Z,101764.27
2018-11-21T01:20:18.526Z,101765.94
2018-11-21T01:21:20.273Z,101763.34
2018-11-21T01:22:22.054Z,101770.39
2018-11-21T01:23:23.791Z,101764.64
2018-11-21T01:24:31.374Z,101770.22
2018-11-21T01:25:33.138Z,101776.72
2018-11-21T01:26:34.870Z,101775.42
2018-11-21T01:27:36.642Z,101777.64
2018-11-21T01:28:38.393Z,101779.69
2018-11-21T01:29:40.310Z,101782.30
2018-11-21T01:30:42.100Z,101785.45
2018-11-21T01:31:44.242Z,101776.17
2018-11-21T01:32:46.019Z,101774.87
2018-11-21T01:33:47.780Z,101775.80
2018-11-21T01:34:49.850Z,101788.42
2018-11-21T01:35:51.586Z,101779.69
2018-11-21T01:36:54.400Z,101775.80
2018-11-21T01:37:56.158Z,101776.17
2018-11-21T01:38:57.924Z,101777.80
2018-11-21T01:39:59.674Z,101780.06
2018-11-21T01:41:01.420Z,101784.31
2018-11-21T01:42:03.211Z,101788.21
2018-11-21T01:43:05.433Z,101776.17
2018-11-21T01:44:07.688Z,101782.67
2018-11-21T01:45:09.435Z,101780.06
2018-11-21T01:46:13.046Z,101780.99
2018-11-21T01:47:14.778Z,101781.37
2018-11-21T01:48:16.544Z,101774.28
2018-11-21T01:49:18.294Z,101779.11
2018-11-21T01:50:20.530Z,101773.91
2018-11-21T01:51:22.267Z,101769.45
2018-11-21T01:52:24.016Z,101788.96
2018-11-21T01:53:25.774Z,101780.41
2018-11-21T01:54:29.146Z,101778.77
2018-11-21T01:55:31.236Z,101784.31
2018-11-21T01:56:33.000Z,101781.70
2018-11-21T01:57:49.103Z,101783.75
2018-11-21T01:58:50.872Z,101791.56
2018-11-21T01:59:52.632Z,101778.93
2018-11-21T02:00:56.633Z,101781.53
2018-11-21T02:01:56.470Z,101782.83
2018-11-21T02:02:58.243Z,101788.03
2018-11-21T02:04:00.001Z,101791.56
2018-11-21T02:05:01.732Z,101785.06
2018-11-21T02:06:03.467Z,101776.70
2018-11-21T02:07:06.762Z,101787.11
2018-11-21T02:08:08.498Z,101781.16
2018-11-21T02:09:11.460Z,101779.30
2018-11-21T02:10:13.218Z,101774.10
2018-11-21T02:11:14.958Z,101777.08
2018-11-21T02:12:31.327Z,101773.73
2018-11-21T02:13:33.095Z,101780.60
2018-11-21T02:14:34.874Z,101775.78
2018-11-21T02:15:36.626Z,101783.20
2018-11-21T02:16:38.422Z,101780.60
2018-11-21T02:17:40.164Z,101775.41
2018-11-21T02:18:41.919Z,101778.00
2018-11-21T02:19:43.668Z,101779.30
2018-11-21T02:20:45.417Z,101770.20
2018-11-21T02:21:47.165Z,101774.48
2018-11-21T02:22:48.911Z,101774.48
2018-11-21T02:23:51.585Z,101776.70
2018-11-21T02:24:53.331Z,101779.68
2018-11-21T02:25:55.108Z,101775.41
2018-11-21T02:26:56.864Z,101774.65
2018-11-21T02:27:58.601Z,101788.38
2018-11-21T02:29:00.387Z,101766.45
2018-11-21T02:30:02.142Z,101770.92
2018-11-21T02:31:05.448Z,101776.88
2018-11-21T02:32:08.019Z,101773.34
2018-11-21T02:33:09.774Z,101772.61
2018-11-21T02:34:13.642Z,101766.68
2018-11-21T02:35:15.920Z,101776.36
2018-11-21T02:36:19.927Z,101774.51
2018-11-21T02:37:21.675Z,101777.11
2018-11-21T02:38:23.434Z,101766.70
2018-11-21T02:39:25.441Z,101776.55
2018-11-21T02:40:27.194Z,101787.67
2018-11-21T02:41:29.183Z,101788.05
2018-11-21T02:42:30.971Z,101779.11
2018-11-21T02:43:32.760Z,101783.01
2018-11-21T02:44:34.562Z,101786.91
2018-11-21T02:45:37.454Z,101777.80
2018-11-21T02:46:39.275Z,101782.08
2018-11-21T02:47:41.041Z,101782.67
2018-11-21T02:48:42.787Z,101775.58
2018-11-21T02:49:44.534Z,101776.33
2018-11-21T02:50:46.289Z,101785.44
2018-11-21T02:51:48.043Z,101780.60
2018-11-21T02:52:49.926Z,101780.42
2018-11-21T02:53:51.811Z,101793.98
2018-11-21T02:54:53.547Z,101773.73
2018-11-21T02:55:55.328Z,101788.41
2018-11-21T02:56:57.063Z,101774.85
2018-11-21T02:57:58.798Z,101782.66
2018-11-21T02:59:00.547Z,101779.68
2018-11-21T03:00:02.301Z,101788.23
2018-11-21T03:01:07.419Z,101796.95
2018-11-21T03:02:09.172Z,101780.05
2018-11-21T03:03:10.915Z,101783.95
2018-11-21T03:04:12.689Z,101788.78
2018-11-21T03:05:14.441Z,101780.42
2018-11-21T03:06:16.211Z,101772.25
2018-11-21T03:07:18.816Z,101776.91
2018-11-21T03:08:20.553Z,101792.50
2018-11-21T03:09:23.524Z,101794.92
2018-11-21T03:10:25.870Z,101780.45
2018-11-21T03:11:27.629Z,101780.45
2018-11-21T03:12:40.793Z,101782.30
2018-11-21T03:13:42.540Z,101781.16
2018-11-21T03:14:44.315Z,101786.18
2018-11-21T03:15:46.068Z,101782.28
2018-11-21T03:16:47.933Z,101784.88
2018-11-21T03:17:49.693Z,101784.33
2018-11-21T03:18:51.435Z,101786.93
2018-11-21T03:19:53.217Z,101797.33
2018-11-21T03:20:55.645Z,101783.03
2018-11-21T03:21:57.906Z,101790.48
2018-11-21T03:22:59.646Z,101790.10
2018-11-21T03:24:01.404Z,101790.66
2018-11-21T03:25:03.177Z,101792.70
2018-11-21T03:26:04.934Z,101779.70
2018-11-21T03:27:28.917Z,101787.13
2018-11-21T03:28:30.666Z,101784.90
2018-11-21T03:29:32.408Z,101787.50
2018-11-21T03:30:34.572Z,101790.48
2018-11-21T03:31:36.394Z,101801.62
2018-11-21T03:32:38.624Z,101797.91
2018-11-21T03:33:43.614Z,101798.66
2018-11-21T03:34:45.344Z,101796.05
2018-11-21T03:35:47.129Z,101802.55
2018-11-21T03:36:50.420Z,101801.25
2018-11-21T03:37:52.168Z,101802.38
2018-11-21T03:38:53.900Z,101800.70
2018-11-21T03:39:55.634Z,101798.09
2018-11-21T03:40:57.413Z,101802.00
2018-11-21T03:41:59.156Z,101794.20
2018-11-21T03:43:00.921Z,101807.20
2018-11-21T03:44:03.280Z,101799.77
2018-11-21T03:45:05.036Z,101815.00
2018-11-21T03:46:06.815Z,101818.31
2018-11-21T03:47:16.016Z,101807.91
2018-11-21T03:48:17.770Z,101809.43
2018-11-21T03:49:19.530Z,101814.08
2018-11-21T03:50:21.268Z,101821.51
2018-11-21T03:51:23.053Z,101810.17
2018-11-21T03:52:24.784Z,101814.41
2018-11-21T03:53:28.087Z,101813.48
2018-11-21T03:54:29.827Z,101808.66
2018-11-21T03:55:34.596Z,101809.96
2018-11-21T03:56:36.872Z,101811.27
2018-11-21T03:57:38.679Z,101815.16
2018-11-21T03:58:40.432Z,101813.86
2018-11-21T03:59:45.641Z,101815.16
2018-11-21T04:00:47.388Z,101830.77
2018-11-21T04:01:49.152Z,101820.92
2018-11-21T04:02:50.924Z,101819.44
2018-11-21T04:03:52.680Z,101814.23
2018-11-21T04:04:54.436Z,101815.53
2018-11-21T04:05:56.175Z,101812.02
2018-11-21T04:06:57.926Z,101809.78
2018-11-21T04:08:02.744Z,101810.34
2018-11-21T04:09:05.958Z,101817.58
2018-11-21T04:10:07.693Z,101825.56
2018-11-21T04:11:09.430Z,101815.53
2018-11-21T04:12:11.223Z,101817.58
2018-11-21T04:13:13.065Z,101812.76
2018-11-21T04:14:14.835Z,101823.16
2018-11-21T04:15:16.566Z,101811.45
2018-11-21T04:16:20.045Z,101827.06
2018-11-21T04:17:21.827Z,101818.70
2018-11-21T04:18:23.598Z,101827.06
2018-11-21T04:19:26.376Z,101822.23
2018-11-21T04:20:28.118Z,101830.78
2018-11-21T04:21:29.866Z,101833.01
2018-11-21T04:22:31.641Z,101834.31
2018-11-21T04:23:33.386Z,101831.34
2018-11-21T04:24:35.124Z,101828.55
2018-11-21T04:25:36.862Z,101834.68
2018-11-21T04:26:38.705Z,101839.52
2018-11-21T04:27:40.651Z,101839.52
2018-11-21T04:28:42.398Z,101840.81
2018-11-21T04:29:45.013Z,101833.76
2018-11-21T04:30:46.768Z,101842.48
2018-11-21T04:31:48.570Z,101845.45
2018-11-21T04:32:50.344Z,101841.56
2018-11-21T04:33:52.219Z,101842.86
2018-11-21T04:34:54.509Z,101844.91
2018-11-21T04:35:56.248Z,101842.86
2018-11-21T04:36:57.999Z,101853.26
2018-11-21T04:37:59.799Z,101851.41
2018-11-21T04:39:01.534Z,101855.86
2018-11-21T04:40:03.446Z,101846.20
2018-11-21T04:41:05.237Z,101845.45
2018-11-21T04:42:06.976Z,101854.37
2018-11-21T04:43:10.834Z,101850.11
2018-11-21T04:44:13.240Z,101849.73
2018-11-21T04:45:14.987Z,101852.70
2018-11-21T04:46:16.739Z,101853.08
2018-11-21T04:47:20.062Z,101844.35
2018-11-21T04:48:22.654Z,101858.66
2018-11-21T04:49:24.393Z,101859.77
2018-11-21T04:50:26.134Z,101864.23
2018-11-21T04:51:29.786Z,101867.58
2018-11-21T04:52:31.514Z,101857.73
2018-11-21T04:53:33.297Z,101865.16
2018-11-21T04:54:35.067Z,101855.12
2018-11-21T04:55:38.046Z,101860.15
2018-11-21T04:56:39.795Z,101856.80
2018-11-21T04:57:41.539Z,101869.25
2018-11-21T04:58:43.324Z,101867.95
2018-11-21T04:59:48.304Z,101861.08
2018-11-21T05:00:50.114Z,101856.25
2018-11-21T05:01:51.909Z,101867.58
2018-11-21T05:02:54.187Z,101862.38
2018-11-21T05:03:55.953Z,101867.39
2018-11-21T05:04:59.525Z,101876.67
2018-11-21T05:06:01.291Z,101871.48
2018-11-21T05:07:03.030Z,101886.52
2018-11-21T05:08:04.785Z,101871.30
2018-11-21T05:09:06.576Z,101869.99
2018-11-21T05:10:08.313Z,101872.59
2018-11-21T05:11:10.085Z,101870.37
2018-11-21T05:12:11.819Z,101878.17
2018-11-21T05:13:13.561Z,101875.75
2018-11-21T05:14:17.180Z,101877.05
2018-11-21T05:15:18.931Z,101875.20
2018-11-21T05:16:20.659Z,101878.17
2018-11-21T05:17:22.393Z,101869.06
2018-11-21T05:18:25.403Z,101872.04
2018-11-21T05:19:27.177Z,101872.41
2018-11-21T05:20:28.935Z,101872.04
2018-11-21T05:21:31.044Z,101877.02
2018-11-21T05:22:33.896Z,101869.22
2018-11-21T05:23:37.528Z,101875.73
2018-11-21T05:24:39.295Z,101876.09
2018-11-21T05:25:41.369Z,101873.13
2018-11-21T05:26:43.111Z,101869.59
2018-11-21T05:27:45.218Z,101882.59
2018-11-21T05:28:46.944Z,101870.52
2018-11-21T05:29:48.732Z,101878.33
2018-11-21T05:30:52.224Z,101878.14
2018-11-21T05:31:53.993Z,101869.59
2018-11-21T05:32:55.733Z,101878.70
2018-11-21T05:33:57.463Z,101880.00
2018-11-21T05:34:59.241Z,101882.59
2018-11-21T05:36:01.001Z,101877.77
2018-11-21T05:37:04.514Z,101888.55
2018-11-21T05:38:06.253Z,101881.67
2018-11-21T05:39:07.987Z,101875.92
2018-11-21T05:40:10.523Z,101884.64
2018-11-21T05:41:12.264Z,101877.77
2018-11-21T05:42:14.013Z,101884.64
2018-11-21T05:43:17.659Z,101887.62
2018-11-21T05:44:19.407Z,101888.92
2018-11-21T05:45:21.169Z,101893.74
2018-11-21T05:46:22.923Z,101873.14
2018-11-21T05:47:24.675Z,101888.36
2018-11-21T05:48:26.433Z,101887.98
2018-11-21T05:49:28.195Z,101885.02
2018-11-21T05:50:29.963Z,101883.34
2018-11-21T05:51:32.767Z,101884.09
2018-11-21T05:52:34.532Z,101892.45
2018-11-21T05:53:36.277Z,101883.16
2018-11-21T05:54:38.019Z,101887.98
2018-11-21T05:55:39.787Z,101887.98
2018-11-21T05:56:44.357Z,101892.27
2018-11-21T05:57:46.120Z,101901.36
2018-11-21T05:58:47.859Z,101889.47
2018-11-21T05:59:49.589Z,101895.79
2018-11-21T06:00:56.432Z,101894.12
2018-11-21T06:01:58.185Z,101899.70
2018-11-21T06:02:59.910Z,101900.27
2018-11-21T06:04:01.663Z,101895.09
2018-11-21T06:05:03.400Z,101904.74
2018-11-21T06:06:09.904Z,101903.63
2018-11-21T06:07:06.934Z,101912.73
2018-11-21T06:08:10.638Z,101906.23
2018-11-21T06:09:13.064Z,101904.56
2018-11-21T06:10:15.132Z,101906.02
2018-11-21T06:11:17.942Z,101912.73
2018-11-21T06:12:19.978Z,101915.72
2018-11-21T06:13:21.726Z,101909.00
2018-11-21T06:14:23.478Z,101921.22
2018-11-21T06:15:25.220Z,101919.00
2018-11-21T06:16:28.166Z,101923.62
2018-11-21T06:17:29.916Z,101914.89
2018-11-21T06:18:31.651Z,101913.81
2018-11-21T06:19:33.444Z,101919.58
2018-11-21T06:20:35.183Z,101915.85
2018-11-21T06:21:36.942Z,101918.66
2018-11-21T06:22:40.541Z,101919.23
2018-11-21T06:23:42.292Z,101930.75
2018-11-21T06:24:44.034Z,101924.07
2018-11-21T06:25:45.931Z,101921.25
2018-11-21T06:26:47.677Z,101931.63
2018-11-21T06:27:51.475Z,101926.45
2018-11-21T06:28:53.250Z,101921.63
2018-11-21T06:29:54.982Z,101924.58
2018-11-21T06:30:56.766Z,101932.41
2018-11-21T06:31:58.710Z,101934.48
2018-11-21T06:33:00.452Z,101933.36
2018-11-21T06:34:02.197Z,101938.37
2018-11-21T06:35:04.803Z,101934.10
2018-11-21T06:36:06.622Z,101926.30
2018-11-21T06:37:08.374Z,101937.63
2018-11-21T06:38:10.253Z,101940.61
2018-11-21T06:39:12.000Z,101945.81
2018-11-21T06:40:15.018Z,101941.91
2018-11-21T06:41:17.566Z,101952.31
2018-11-21T06:42:19.299Z,101940.61
2018-11-21T06:43:21.067Z,101945.99
2018-11-21T06:44:22.885Z,101940.61
2018-11-21T06:45:27.369Z,101946.73
2018-11-21T06:46:29.125Z,101949.71
2018-11-21T06:47:30.874Z,101941.72
2018-11-21T06:48:34.572Z,101946.17
2018-11-21T06:49:36.325Z,101943.77
2018-11-21T06:50:38.058Z,101947.29
2018-11-21T06:51:39.828Z,101949.34
2018-11-21T06:52:45.137Z,101951.02
2018-11-21T06:53:46.972Z,101951.02
2018-11-21T06:54:48.716Z,101943.39
2018-11-21T06:55:50.476Z,101946.17
2018-11-21T06:56:52.262Z,101951.92
2018-11-21T06:57:54.014Z,101943.20
2018-11-21T06:58:55.760Z,101944.88
2018-11-21T06:59:57.529Z,101951.92
2018-11-21T07:00:59.318Z,101947.47
2018-11-21T07:02:01.088Z,101955.08
2018-11-21T07:03:05.446Z,101960.85
2018-11-21T07:04:07.239Z,101959.55
2018-11-21T07:05:09.754Z,101951.56
2018-11-21T07:06:11.795Z,101960.11
2018-11-21T07:07:14.088Z,101952.86
2018-11-21T07:08:15.821Z,101948.97
2018-11-21T07:09:17.574Z,101957.33
2018-11-21T07:10:19.335Z,101964.75
2018-11-21T07:11:21.454Z,101964.57
2018-11-21T07:12:23.587Z,101969.41
2018-11-21T07:13:25.346Z,101965.31
2018-11-21T07:14:27.088Z,101974.60
2018-11-21T07:15:31.114Z,101961.41
2018-11-21T07:16:34.817Z,101968.47
2018-11-21T07:17:38.432Z,101967.55
2018-11-21T07:18:40.653Z,101970.52
2018-11-21T07:19:42.424Z,101981.48
2018-11-21T07:20:44.169Z,101977.02
2018-11-21T07:21:45.927Z,101980.73
2018-11-21T07:22:47.734Z,101981.84
2018-11-21T07:23:49.498Z,101980.73
2018-11-21T07:24:52.457Z,101978.31
2018-11-21T07:25:54.218Z,101978.69
2018-11-21T07:26:55.969Z,101986.87
2018-11-21T07:27:57.742Z,101995.79
2018-11-21T07:29:09.817Z,101989.47
2018-11-21T07:30:12.701Z,101986.49
2018-11-21T07:31:14.456Z,101999.31
2018-11-21T07:32:17.089Z,101997.27
2018-11-21T07:33:18.857Z,101992.06
2018-11-21T07:34:21.638Z,102003.77
2018-11-21T07:35:22.723Z,102001.55
2018-11-21T07:36:27.343Z,101992.63
2018-11-21T07:37:30.308Z,101994.30
2018-11-21T07:38:32.089Z,101996.91
2018-11-21T07:39:38.351Z,101993.00
2018-11-21T07:40:41.178Z,101992.81
2018-11-21T07:41:42.944Z,101990.59
2018-11-21T07:42:44.748Z,101998.77
2018-11-21T07:43:46.563Z,101989.28
2018-11-21T07:44:48.522Z,101998.20
2018-11-21T07:45:50.287Z,102002.66
2018-11-21T07:46:52.039Z,101995.41
2018-11-21T07:47:53.780Z,102009.72
2018-11-21T07:48:57.386Z,101994.30
2018-11-21T07:49:59.147Z,102003.78
2018-11-21T07:51:02.460Z,101992.27
2018-11-21T07:52:02.681Z,101994.30
2018-11-21T07:53:04.431Z,102003.03
2018-11-21T07:54:06.399Z,102000.62
2018-11-21T07:55:08.669Z,101991.33
2018-11-21T07:56:10.409Z,101995.61
2018-11-21T07:57:12.147Z,101999.87
2018-11-21T07:58:15.953Z,102005.45
2018-11-21T07:59:18.083Z,101995.61
2018-11-21T08:00:19.858Z,102005.80
2018-11-21T08:01:27.638Z,102011.59
2018-11-21T08:02:34.432Z,102012.52
2018-11-21T08:03:47.357Z,102006.38
2018-11-21T08:05:02.394Z,102011.77
2018-11-21T08:06:09.653Z,102017.34
2018-11-21T08:07:30.730Z,102020.88
2018-11-21T08:08:38.025Z,102021.40
2018-11-21T08:10:00.409Z,102024.38
2018-11-21T08:11:30.744Z,102023.45
2018-11-21T08:12:54.398Z,102019.92
2018-11-21T08:14:28.433Z,102031.25
2018-11-21T08:15:49.395Z,102025.49
2018-11-21T08:17:09.049Z,102023.45
2018-11-21T08:18:32.975Z,102039.42
2018-11-21T08:20:09.175Z,102034.97
2018-11-21T08:21:36.238Z,102041.81
2018-11-21T08:22:54.110Z,102046.70
2018-11-21T08:24:13.221Z,102044.63
2018-11-21T08:25:32.921Z,102053.91
2018-11-21T08:26:57.763Z,102056.33
2018-11-21T08:28:37.009Z,102053.17
2018-11-21T08:30:40.524Z,102053.89
2018-11-21T08:31:42.276Z,102050.58
2018-11-21T08:32:44.434Z,102056.48
2018-11-21T08:33:45.798Z,102050.91
2018-11-21T08:34:47.563Z,102058.38
2018-11-21T08:35:50.905Z,102045.16
2018-11-21T08:36:52.669Z,102058.72
2018-11-21T08:37:56.271Z,102057.41
2018-11-21T08:39:00.962Z,102056.30
2018-11-21T08:40:02.725Z,102042.92
2018-11-21T08:41:07.755Z,102053.89
2018-11-21T08:42:09.510Z,102057.23
2018-11-21T08:43:14.507Z,102057.41
2018-11-21T08:44:16.263Z,102057.78
2018-11-21T08:45:18.063Z,102060.02
2018-11-21T08:46:19.855Z,102056.11
2018-11-21T08:47:21.601Z,102052.95
2018-11-21T08:48:23.650Z,102065.96
2018-11-21T08:49:26.202Z,102065.03
2018-11-21T08:50:27.949Z,102065.78
2018-11-21T08:51:29.742Z,102064.66
2018-11-21T08:52:31.634Z,102065.59
2018-11-21T08:53:33.756Z,102064.88
2018-11-21T08:54:35.508Z,102070.08
2018-11-21T08:55:37.630Z,102071.94
2018-11-21T08:56:40.926Z,102060.61
2018-11-21T08:57:42.676Z,102077.52
2018-11-21T08:58:45.941Z,102077.14
2018-11-21T08:59:47.705Z,102067.11
2018-11-21T09:00:50.055Z,102073.61
2018-11-21T09:01:51.829Z,102077.89
2018-11-21T09:02:53.765Z,102078.81
2018-11-21T09:03:55.526Z,102085.69
2018-11-21T09:04:57.345Z,102083.09
2018-11-21T09:06:02.413Z,102078.59
2018-11-21T09:07:00.908Z,102085.09
2018-11-21T09:08:02.662Z,102088.48
2018-11-21T09:09:05.464Z,102074.91
2018-11-21T09:10:07.226Z,102080.48
2018-11-21T09:11:08.984Z,102095.13
2018-11-21T09:12:11.170Z,102095.13
2018-11-21T09:13:23.091Z,102091.23
2018-11-21T09:14:24.839Z,102091.60
2018-11-21T09:15:26.593Z,102091.60
2018-11-21T09:16:31.775Z,102107.20
2018-11-21T09:17:33.577Z,102093.64
2018-11-21T09:18:35.324Z,102106.28
2018-11-21T09:19:39.585Z,102103.12
2018-11-21T09:20:41.334Z,102101.82
2018-11-21T09:21:43.094Z,102107.95
2018-11-21T09:22:46.361Z,102108.33
2018-11-21T09:23:48.116Z,102111.30
2018-11-21T09:24:49.893Z,102115.20
2018-11-21T09:25:51.714Z,102120.77
2018-11-21T09:26:53.442Z,102112.59
2018-11-21T09:27:55.220Z,102115.20
2018-11-21T09:28:59.795Z,102118.55
2018-11-21T09:30:01.731Z,102141.77
2018-11-21T09:31:03.501Z,102135.08
2018-11-21T09:32:05.238Z,102124.11
2018-11-21T09:33:06.998Z,102127.83
2018-11-21T09:34:08.760Z,102125.41
2018-11-21T09:35:25.257Z,102124.11
2018-11-21T09:36:26.974Z,102122.44
2018-11-21T09:37:30.117Z,102125.05
2018-11-21T09:38:32.570Z,102134.52
2018-11-21T09:39:34.323Z,102129.88
2018-11-21T09:40:36.065Z,102123.74
2018-11-21T09:41:37.927Z,102136.00
2018-11-21T09:42:42.602Z,102129.88
2018-11-21T09:43:44.378Z,102127.64
2018-11-21T09:44:46.127Z,102134.70
2018-11-21T09:45:49.050Z,102138.61
2018-11-21T09:46:50.829Z,102136.56
2018-11-21T09:47:52.583Z,102132.66
2018-11-21T09:49:00.570Z,102146.03
2018-11-21T09:50:02.350Z,102142.13
2018-11-21T09:51:04.097Z,102139.16
2018-11-21T09:52:05.874Z,102139.16
2018-11-21T09:53:07.596Z,102135.08
2018-11-21T09:54:09.377Z,102136.56
2018-11-21T09:55:12.260Z,102142.13
2018-11-21T09:56:14.016Z,102143.99
2018-11-21T09:57:15.864Z,102137.86
2018-11-21T09:58:17.620Z,102151.23
2018-11-21T09:59:24.275Z,102145.48
2018-11-21T10:00:26.184Z,102144.18
2018-11-21T10:01:27.932Z,102146.41
2018-11-21T10:02:29.686Z,102145.11
2018-11-21T10:03:32.956Z,102146.78
2018-11-21T10:04:35.849Z,102149.38
2018-11-21T10:05:37.600Z,102155.52
2018-11-21T10:06:39.369Z,102151.61
2018-11-21T10:07:41.132Z,102157.19
2018-11-21T10:08:44.615Z,102154.58
2018-11-21T10:09:48.533Z,102162.75
2018-11-21T10:10:52.356Z,102164.98
2018-11-21T10:11:54.115Z,102156.63
2018-11-21T10:13:08.443Z,102155.33
2018-11-21T10:14:10.190Z,102155.33
2018-11-21T10:15:14.816Z,102164.80
2018-11-21T10:16:16.575Z,102154.17
2018-11-21T10:17:20.719Z,102154.77
2018-11-21T10:18:25.255Z,102155.11
2018-11-21T10:19:27.036Z,102153.80
2018-11-21T10:20:28.787Z,102147.30
2018-11-21T10:21:32.379Z,102156.06
2018-11-21T10:22:34.131Z,102152.88
2018-11-21T10:23:38.016Z,102156.77
2018-11-21T10:24:39.803Z,102153.80
2018-11-21T10:25:41.548Z,102147.52
2018-11-21T10:26:44.159Z,102154.39
2018-11-21T10:27:45.948Z,102150.12
2018-11-21T10:28:48.408Z,102150.87
2018-11-21T10:29:50.144Z,102152.50
2018-11-21T10:30:52.016Z,102152.16
2018-11-21T10:31:53.780Z,102144.70
2018-11-21T10:32:55.810Z,102145.07
2018-11-21T10:33:59.047Z,102148.97
2018-11-21T10:35:00.837Z,102153.47
2018-11-21T10:36:03.730Z,102143.77
2018-11-21T10:37:05.480Z,102148.60
2018-11-21T10:38:07.229Z,102146.59
2018-11-21T10:39:09.152Z,102145.66
2018-11-21T10:40:11.056Z,102149.20
2018-11-21T10:41:12.766Z,102143.77
2018-11-21T10:42:14.510Z,102143.77
2018-11-21T10:43:17.091Z,102148.27
2018-11-21T10:44:18.824Z,102144.36
2018-11-21T10:45:20.591Z,102145.44
2018-11-21T10:46:22.333Z,102151.58
2018-11-21T10:47:24.104Z,102145.07
2018-11-21T10:48:25.903Z,102152.88
2018-11-21T10:49:27.643Z,102153.47
2018-11-21T10:50:29.596Z,102149.56
2018-11-21T10:51:32.105Z,102151.58
2018-11-21T10:52:33.848Z,102145.81
2018-11-21T10:53:35.607Z,102155.48
2018-11-21T10:54:37.361Z,102155.84
2018-11-21T10:55:39.141Z,102159.00
2018-11-21T10:56:40.915Z,102153.62
2018-11-21T10:57:42.678Z,102163.65
2018-11-21T10:58:44.442Z,102146.56
2018-11-21T10:59:46.326Z,102156.03
2018-11-21T11:01:06.241Z,102151.76
2018-11-21T11:02:24.369Z,102139.50
2018-11-21T11:03:28.270Z,102154.73
2018-11-21T11:04:43.102Z,102155.66
2018-11-21T11:06:04.070Z,102152.69
2018-11-21T11:07:29.328Z,102152.31
2018-11-21T11:08:56.308Z,102156.59
2018-11-21T11:10:20.197Z,102158.26
2018-11-21T11:11:42.391Z,102156.59
2018-11-21T11:12:57.872Z,102146.00
2018-11-21T11:14:37.057Z,102153.80
2018-11-21T11:16:00.867Z,102154.73
2018-11-21T11:17:20.603Z,102146.93
2018-11-21T11:18:40.423Z,102166.44
2018-11-21T11:20:08.712Z,102146.00
2018-11-21T11:21:26.583Z,102154.55
2018-11-21T11:22:50.295Z,102146.00
2018-11-21T11:24:16.838Z,102154.36
2018-11-21T11:25:58.858Z,102169.03
2018-11-21T11:27:13.827Z,102155.10
2018-11-21T11:28:40.413Z,102166.44
2018-11-21T11:29:54.747Z,102163.83
2018-11-21T11:31:26.081Z,102160.30
2018-11-21T11:32:56.075Z,102164.58
2018-11-21T11:34:15.594Z,102154.73
2018-11-21T11:35:35.314Z,102172.37
2018-11-21T11:37:08.448Z,102163.09
2018-11-21T11:40:09.330Z,102163.64
2018-11-21T11:41:39.094Z,102155.10
2018-11-21T11:42:58.437Z,102158.44
2018-11-21T11:44:19.131Z,102159.37
2018-11-21T11:45:49.211Z,102158.81
2018-11-21T11:47:13.187Z,102153.24
2018-11-21T11:48:39.770Z,102162.72
2018-11-21T11:50:16.584Z,102163.09
2018-11-21T11:51:49.461Z,102165.31
2018-11-21T11:53:10.411Z,102170.14
2018-11-21T11:54:37.339Z,102165.87
2018-11-21T11:56:02.292Z,102176.65
2018-11-21T11:57:32.325Z,102168.84
2018-11-21T11:58:47.823Z,102178.31
2018-11-21T12:00:16.479Z,102161.23
2018-11-21T12:01:40.481Z,102167.36
2018-11-21T12:03:00.479Z,102160.11
2018-11-21T12:04:21.471Z,102167.36
2018-11-21T12:05:47.921Z,102165.69
2018-11-21T12:07:15.696Z,102167.91
2018-11-21T12:08:39.495Z,102164.38
2018-11-21T12:10:03.220Z,102166.06
2018-11-21T12:11:23.277Z,102170.89
2018-11-21T12:12:43.467Z,102157.89
2018-11-21T12:14:03.390Z,102156.58
2018-11-21T12:15:33.732Z,102157.33
2018-11-21T12:16:53.877Z,102173.86
2018-11-21T12:18:13.561Z,102165.31
2018-11-21T12:19:33.275Z,102169.03
2018-11-21T12:20:53.482Z,102166.98